createdAt,value
2023-01-30T00:00:19.808Z,-1.82
2023-01-30T00:00:57.378Z,-1.73
2023-01-30T00:01:32.241Z,-1.74
2023-01-30T00:02:04.384Z,-1.98
2023-01-30T00:02:36.339Z,-2.19
2023-01-30T00:03:08.566Z,-2.09
2023-01-30T00:03:40.572Z,-1.96
2023-01-30T00:04:15.417Z,-1.81
2023-01-30T00:04:48.873Z,-1.68
2023-01-30T00:05:20.909Z,-1.55
2023-01-30T00:05:53.768Z,-1.50
2023-01-30T00:06:26.092Z,-1.69
2023-01-30T00:06:58.115Z,-1.88
2023-01-30T00:07:30.086Z,-2.07
2023-01-30T00:08:01.987Z,-1.90
2023-01-30T00:08:33.947Z,-1.87
2023-01-30T00:09:05.855Z,-1.83
2023-01-30T00:09:37.908Z,-2.00
2023-01-30T00:10:10.538Z,-1.94
2023-01-30T00:10:42.491Z,-1.79
2023-01-30T00:11:16.903Z,-1.85
2023-01-30T00:11:48.802Z,-2.08
2023-01-30T00:12:20.854Z,-2.06
2023-01-30T00:12:52.833Z,-2.03
2023-01-30T00:13:24.741Z,-2.00
2023-01-30T00:13:56.917Z,-1.97
2023-01-30T00:14:28.814Z,-1.99
2023-01-30T00:15:00.734Z,-1.90
2023-01-30T00:15:32.606Z,-1.79
2023-01-30T00:16:05.272Z,-1.81
2023-01-30T00:16:37.843Z,-1.73
2023-01-30T00:17:09.771Z,-1.71
2023-01-30T00:17:41.639Z,-1.88
2023-01-30T00:18:13.514Z,-1.96
2023-01-30T00:18:45.531Z,-1.91
2023-01-30T00:19:17.442Z,-1.98
2023-01-30T00:19:49.385Z,-2.12
2023-01-30T00:20:21.510Z,-2.15
2023-01-30T00:21:01.184Z,-2.11
2023-01-30T00:21:33.122Z,-2.03
2023-01-30T00:22:05.445Z,-2.00
2023-01-30T00:22:37.371Z,-1.94
2023-01-30T00:23:09.294Z,-1.73
2023-01-30T00:23:41.894Z,-1.64
2023-01-30T00:24:13.927Z,-1.70
2023-01-30T00:24:45.932Z,-1.67
2023-01-30T00:25:18.049Z,-1.70
2023-01-30T00:25:50.224Z,-1.68
2023-01-30T00:26:22.417Z,-1.67
2023-01-30T00:26:54.305Z,-1.68
2023-01-30T00:27:26.555Z,-1.65
2023-01-30T00:28:02.094Z,-1.60
2023-01-30T00:28:34.736Z,-1.68
2023-01-30T00:29:06.757Z,-1.65
2023-01-30T00:29:38.933Z,-1.52
2023-01-30T00:30:11.391Z,-1.67
2023-01-30T00:30:43.369Z,-1.67
2023-01-30T00:31:15.389Z,-1.63
2023-01-30T00:31:47.330Z,-1.61
2023-01-30T00:32:19.294Z,-1.71
2023-01-30T00:32:56.147Z,-1.79
2023-01-30T00:33:29.693Z,-1.73
2023-01-30T00:34:01.717Z,-1.66
2023-01-30T00:34:34.806Z,-1.81
2023-01-30T00:35:07.246Z,-1.88
2023-01-30T00:35:47.054Z,-1.80
2023-01-30T00:36:19.138Z,-1.65
2023-01-30T00:37:43.047Z,-1.92
2023-01-30T00:38:15.893Z,-1.87
2023-01-30T00:38:47.783Z,-1.94
2023-01-30T00:39:19.805Z,-2.01
2023-01-30T00:39:51.787Z,-2.25
2023-01-30T00:40:25.133Z,-2.22
2023-01-30T00:40:57.041Z,-2.27
2023-01-30T00:41:48.882Z,-2.27
2023-01-30T00:42:39.492Z,-2.27
2023-01-30T00:43:36.092Z,-2.35
2023-01-30T00:44:26.991Z,-2.27
2023-01-30T00:45:17.697Z,-2.29
2023-01-30T00:46:10.944Z,-2.27
2023-01-30T00:47:01.371Z,-2.29
2023-01-30T00:47:33.312Z,-2.19
2023-01-30T00:48:05.436Z,-2.30
2023-01-30T00:48:37.372Z,-2.34
2023-01-30T00:49:09.585Z,-2.31
2023-01-30T00:49:42.371Z,-2.23
2023-01-30T00:50:14.272Z,-2.21
2023-01-30T00:50:48.590Z,-2.31
2023-01-30T00:51:20.663Z,-2.23
2023-01-30T00:51:52.581Z,-2.32
2023-01-30T00:52:24.494Z,-2.39
2023-01-30T00:52:56.418Z,-2.57
2023-01-30T00:53:28.715Z,-2.49
2023-01-30T00:54:00.636Z,-2.44
2023-01-30T00:54:32.858Z,-2.44
2023-01-30T00:55:05.106Z,-2.43
2023-01-30T00:55:36.972Z,-2.51
2023-01-30T00:56:08.987Z,-2.42
2023-01-30T00:56:40.868Z,-2.36
2023-01-30T00:57:12.739Z,-2.43
2023-01-30T00:57:45.102Z,-2.46
2023-01-30T00:58:17.290Z,-2.59
2023-01-30T00:58:49.253Z,-2.68
2023-01-30T00:59:21.129Z,-2.70
2023-01-30T00:59:53.604Z,-2.69
2023-01-30T01:00:25.516Z,-2.75
2023-01-30T01:00:57.421Z,-2.69
2023-01-30T01:01:29.548Z,-2.70
2023-01-30T01:02:01.474Z,-2.70
2023-01-30T01:02:33.438Z,-2.73
2023-01-30T01:03:05.622Z,-2.84
2023-01-30T01:03:37.526Z,-2.84
2023-01-30T01:04:10.609Z,-2.79
2023-01-30T01:04:45.377Z,-2.75
2023-01-30T01:05:17.858Z,-2.60
2023-01-30T01:05:49.936Z,-2.57
2023-01-30T01:06:21.935Z,-2.67
2023-01-30T01:06:53.971Z,-2.54
2023-01-30T01:07:25.907Z,-2.56
2023-01-30T01:07:57.826Z,-2.46
2023-01-30T01:08:30.116Z,-2.46
2023-01-30T01:09:02.181Z,-2.58
2023-01-30T01:09:34.841Z,-2.66
2023-01-30T01:10:07.263Z,-2.62
2023-01-30T01:10:39.656Z,-2.72
2023-01-30T01:11:24.197Z,-2.63
2023-01-30T01:11:56.239Z,-2.57
2023-01-30T01:12:28.204Z,-2.66
2023-01-30T01:13:00.273Z,-2.54
2023-01-30T01:13:32.196Z,-2.48
2023-01-30T01:14:05.441Z,-2.47
2023-01-30T01:14:37.352Z,-2.47
2023-01-30T01:15:10.614Z,-2.46
2023-01-30T01:15:43.148Z,-2.44
2023-01-30T01:16:15.115Z,-2.53
2023-01-30T01:16:47.030Z,-2.56
2023-01-30T01:17:18.920Z,-2.65
2023-01-30T01:17:50.843Z,-2.71
2023-01-30T01:18:22.985Z,-2.85
2023-01-30T01:18:55.271Z,-2.74
2023-01-30T01:19:27.562Z,-2.72
2023-01-30T01:19:59.599Z,-2.67
2023-01-30T01:20:31.493Z,-2.58
2023-01-30T01:21:03.884Z,-2.48
2023-01-30T01:21:35.777Z,-2.48
2023-01-30T01:22:10.183Z,-2.45
2023-01-30T01:22:42.072Z,-2.52
2023-01-30T01:23:14.025Z,-2.62
2023-01-30T01:23:59.870Z,-2.52
2023-01-30T01:24:31.937Z,-2.56
2023-01-30T01:25:04.182Z,-2.53
2023-01-30T01:25:36.100Z,-2.57
2023-01-30T01:26:08.479Z,-2.59
2023-01-30T01:26:41.707Z,-2.54
2023-01-30T01:27:16.011Z,-2.55
2023-01-30T01:27:48.446Z,-2.38
2023-01-30T01:28:22.323Z,-2.34
2023-01-30T01:28:56.178Z,-2.40
2023-01-30T01:29:28.265Z,-2.66
2023-01-30T01:30:03.091Z,-2.79
2023-01-30T01:30:35.017Z,-2.92
2023-01-30T01:31:11.894Z,-2.83
2023-01-30T01:31:44.638Z,-2.70
2023-01-30T01:32:16.900Z,-2.66
2023-01-30T01:32:48.800Z,-2.58
2023-01-30T01:33:20.832Z,-2.60
2023-01-30T01:33:52.876Z,-2.60
2023-01-30T01:34:24.770Z,-2.72
2023-01-30T01:34:56.960Z,-2.65
2023-01-30T01:35:29.037Z,-2.72
2023-01-30T01:36:01.445Z,-2.68
2023-01-30T01:36:53.959Z,-2.72
2023-01-30T01:37:26.929Z,-2.84
2023-01-30T01:37:59.022Z,-2.77
2023-01-30T01:38:32.281Z,-2.81
2023-01-30T01:39:04.840Z,-2.81
2023-01-30T01:39:55.384Z,-2.81
2023-01-30T01:40:45.874Z,-2.65
2023-01-30T01:41:18.751Z,-2.71
2023-01-30T01:41:50.716Z,-2.85
2023-01-30T01:42:25.878Z,-2.84
2023-01-30T01:42:58.104Z,-2.72
2023-01-30T01:43:32.387Z,-2.72
2023-01-30T01:44:17.246Z,-2.81
2023-01-30T01:45:04.766Z,-2.83
2023-01-30T01:45:36.691Z,-2.84
2023-01-30T01:46:23.307Z,-2.78
2023-01-30T01:46:58.943Z,-2.70
2023-01-30T01:47:34.610Z,-2.61
2023-01-30T01:48:15.879Z,-2.49
2023-01-30T01:48:55.202Z,-2.50
2023-01-30T01:49:33.991Z,-2.60
2023-01-30T01:50:15.263Z,-2.85
2023-01-30T01:50:57.745Z,-2.95
2023-01-30T01:51:40.678Z,-2.86
2023-01-30T01:52:15.922Z,-2.77
2023-01-30T01:52:52.217Z,-2.71
2023-01-30T01:53:42.047Z,-2.72
2023-01-30T01:54:23.514Z,-2.92
2023-01-30T01:55:02.629Z,-2.92
2023-01-30T01:55:35.228Z,-2.89
2023-01-30T01:56:08.294Z,-2.89
2023-01-30T01:56:45.930Z,-2.99
2023-01-30T01:57:54.137Z,-2.89
2023-01-30T01:58:39.444Z,-2.94
2023-01-30T01:59:30.806Z,-2.84
2023-01-30T02:00:13.512Z,-2.73
2023-01-30T02:00:46.099Z,-2.63
2023-01-30T02:01:18.572Z,-2.64
2023-01-30T02:01:56.079Z,-2.84
2023-01-30T02:02:28.145Z,-2.76
2023-01-30T02:03:07.878Z,-2.91
2023-01-30T02:03:49.466Z,-2.92
2023-01-30T02:04:41.555Z,-2.99
2023-01-30T02:05:16.771Z,-2.80
2023-01-30T02:05:53.047Z,-3.10
2023-01-30T02:06:25.341Z,-3.04
2023-01-30T02:06:57.676Z,-2.95
2023-01-30T02:07:34.307Z,-2.97
2023-01-30T02:08:10.359Z,-2.98
2023-01-30T02:08:50.362Z,-2.89
2023-01-30T02:09:23.776Z,-2.83
2023-01-30T02:09:55.853Z,-2.67
2023-01-30T02:10:35.435Z,-2.57
2023-01-30T02:11:07.275Z,-2.65
2023-01-30T02:11:48.020Z,-2.85
2023-01-30T02:12:19.903Z,-2.96
2023-01-30T02:12:52.064Z,-2.90
2023-01-30T02:13:26.225Z,-2.89
2023-01-30T02:14:02.354Z,-2.85
2023-01-30T02:14:35.327Z,-2.79
2023-01-30T02:15:07.862Z,-2.72
2023-01-30T02:15:40.269Z,-2.74
2023-01-30T02:16:12.484Z,-2.88
2023-01-30T02:16:46.524Z,-3.11
2023-01-30T02:17:19.507Z,-3.15
2023-01-30T02:17:51.695Z,-3.08
2023-01-30T02:18:23.798Z,-3.17
2023-01-30T02:18:55.896Z,-3.16
2023-01-30T02:20:06.434Z,-3.23
2023-01-30T02:21:18.059Z,-3.32
2023-01-30T02:22:04.334Z,-3.21
2023-01-30T02:23:02.313Z,-3.21
2023-01-30T02:24:01.966Z,-3.12
2023-01-30T02:24:48.998Z,-2.91
2023-01-30T02:25:36.028Z,-2.90
2023-01-30T02:26:56.084Z,-2.85
2023-01-30T02:28:05.024Z,-2.87
2023-01-30T02:28:52.686Z,-2.87
2023-01-30T02:29:42.337Z,-2.77
2023-01-30T02:30:33.012Z,-2.74
2023-01-30T02:31:06.023Z,-2.71
2023-01-30T02:31:45.783Z,-2.77
2023-01-30T02:32:26.617Z,-3.01
2023-01-30T02:33:17.778Z,-3.00
2023-01-30T02:34:09.372Z,-2.87
2023-01-30T02:34:47.132Z,-2.76
2023-01-30T02:35:24.943Z,-2.99
2023-01-30T02:36:09.593Z,-3.05
2023-01-30T02:36:59.716Z,-3.24
2023-01-30T02:37:43.644Z,-3.05
2023-01-30T02:38:38.301Z,-2.80
2023-01-30T02:39:31.674Z,-2.78
2023-01-30T02:40:27.910Z,-2.78
2023-01-30T02:41:00.228Z,-2.81
2023-01-30T02:41:37.816Z,-2.94
2023-01-30T02:42:19.010Z,-2.98
2023-01-30T02:43:04.755Z,-3.31
2023-01-30T02:43:40.231Z,-3.38
2023-01-30T02:44:24.077Z,-3.30
2023-01-30T02:45:07.424Z,-3.05
2023-01-30T02:45:53.624Z,-2.85
2023-01-30T02:46:49.113Z,-2.76
2023-01-30T02:47:47.293Z,-2.65
2023-01-30T02:48:27.363Z,-2.57
2023-01-30T02:49:14.393Z,-2.60
2023-01-30T02:49:52.340Z,-2.51
2023-01-30T02:50:29.475Z,-2.66
2023-01-30T02:51:12.597Z,-2.59
2023-01-30T02:51:47.425Z,-2.53
2023-01-30T02:52:21.537Z,-2.46
2023-01-30T02:52:54.616Z,-2.47
2023-01-30T02:53:32.790Z,-2.50
2023-01-30T02:54:10.388Z,-2.55
2023-01-30T02:54:42.289Z,-2.53
2023-01-30T02:55:22.934Z,-2.42
2023-01-30T02:55:55.322Z,-2.34
2023-01-30T02:56:27.761Z,-2.34
2023-01-30T02:57:00.755Z,-2.32
2023-01-30T02:57:32.951Z,-2.37
2023-01-30T02:58:05.398Z,-2.45
2023-01-30T02:58:47.684Z,-2.43
2023-01-30T02:59:26.367Z,-2.44
2023-01-30T03:00:02.739Z,-2.35
2023-01-30T03:00:37.768Z,-2.40
2023-01-30T03:01:48.454Z,-2.48
2023-01-30T03:02:33.004Z,-2.50
2023-01-30T03:03:11.100Z,-2.39
2023-01-30T03:04:18.529Z,-2.40
2023-01-30T03:05:19.336Z,-2.34
2023-01-30T03:05:58.701Z,-2.43
2023-01-30T03:06:40.636Z,-2.55
2023-01-30T03:07:36.444Z,-2.45
2023-01-30T03:08:24.935Z,-2.41
2023-01-30T03:09:22.564Z,-2.40
2023-01-30T03:10:01.821Z,-2.30
2023-01-30T03:10:34.169Z,-2.31
2023-01-30T03:11:09.561Z,-2.29
2023-01-30T03:11:47.706Z,-2.36
2023-01-30T03:12:42.756Z,-2.35
2023-01-30T03:13:49.363Z,-2.34
2023-01-30T03:14:29.364Z,-2.33
2023-01-30T03:15:17.862Z,-2.37
2023-01-30T03:15:57.502Z,-2.33
2023-01-30T03:16:38.949Z,-2.31
2023-01-30T03:17:12.800Z,-2.44
2023-01-30T03:17:48.093Z,-2.63
2023-01-30T03:18:21.607Z,-2.82
2023-01-30T03:18:53.612Z,-2.80
2023-01-30T03:19:28.833Z,-2.81
2023-01-30T03:20:01.003Z,-2.85
2023-01-30T03:20:40.555Z,-2.96
2023-01-30T03:21:12.694Z,-2.88
2023-01-30T03:21:45.544Z,-2.80
2023-01-30T03:22:17.491Z,-2.79
2023-01-30T03:22:49.404Z,-2.80
2023-01-30T03:23:22.021Z,-2.79
2023-01-30T03:23:54.014Z,-2.87
2023-01-30T03:24:26.471Z,-2.75
2023-01-30T03:24:58.376Z,-2.80
2023-01-30T03:25:32.310Z,-2.81
2023-01-30T03:26:06.250Z,-2.84
2023-01-30T03:27:03.399Z,-2.83
2023-01-30T03:27:37.198Z,-2.80
2023-01-30T03:28:13.566Z,-2.99
2023-01-30T03:28:49.802Z,-2.92
2023-01-30T03:29:21.950Z,-2.92
2023-01-30T03:29:54.982Z,-3.16
2023-01-30T03:30:27.164Z,-3.01
2023-01-30T03:31:01.117Z,-2.97
2023-01-30T03:31:33.790Z,-3.11
2023-01-30T03:32:06.134Z,-2.99
2023-01-30T03:32:38.030Z,-3.02
2023-01-30T03:33:10.468Z,-2.88
2023-01-30T03:33:43.139Z,-2.83
2023-01-30T03:34:15.662Z,-2.70
2023-01-30T03:34:47.680Z,-2.62
2023-01-30T03:35:19.967Z,-2.63
2023-01-30T03:35:52.915Z,-2.72
2023-01-30T03:36:24.834Z,-2.91
2023-01-30T03:36:57.280Z,-2.95
2023-01-30T03:37:29.698Z,-2.93
2023-01-30T03:38:02.868Z,-3.02
2023-01-30T03:38:36.102Z,-3.08
2023-01-30T03:39:08.585Z,-3.17
2023-01-30T03:39:40.791Z,-3.14
2023-01-30T03:40:16.108Z,-3.03
2023-01-30T03:40:49.523Z,-3.14
2023-01-30T03:41:22.328Z,-3.04
2023-01-30T03:41:54.573Z,-3.06
2023-01-30T03:42:27.134Z,-3.23
2023-01-30T03:42:59.410Z,-3.12
2023-01-30T03:43:31.375Z,-3.00
2023-01-30T03:44:03.512Z,-3.05
2023-01-30T03:44:35.502Z,-3.06
2023-01-30T03:45:08.670Z,-3.19
2023-01-30T03:45:40.960Z,-3.11
2023-01-30T03:46:13.066Z,-3.20
2023-01-30T03:46:45.084Z,-3.00
2023-01-30T03:47:17.034Z,-3.18
2023-01-30T03:47:48.998Z,-3.27
2023-01-30T03:48:21.054Z,-3.34
2023-01-30T03:48:52.939Z,-3.29
2023-01-30T03:49:24.949Z,-3.29
2023-01-30T03:49:57.221Z,-3.33
2023-01-30T03:50:30.145Z,-3.46
2023-01-30T03:51:02.906Z,-3.39
2023-01-30T03:51:35.016Z,-3.35
2023-01-30T03:52:07.996Z,-3.33
2023-01-30T03:52:40.238Z,-3.55
2023-01-30T03:53:13.443Z,-3.43
2023-01-30T03:53:45.789Z,-3.39
2023-01-30T03:54:17.992Z,-3.32
2023-01-30T03:54:50.151Z,-3.30
2023-01-30T03:55:22.123Z,-3.18
2023-01-30T03:55:54.517Z,-3.12
2023-01-30T03:56:27.406Z,-3.22
2023-01-30T03:56:59.384Z,-3.27
2023-01-30T03:57:31.511Z,-3.34
2023-01-30T03:58:04.662Z,-3.32
2023-01-30T03:58:37.012Z,-3.17
2023-01-30T03:59:13.273Z,-3.09
2023-01-30T03:59:46.232Z,-3.07
2023-01-30T04:00:18.997Z,-3.08
2023-01-30T04:00:52.660Z,-3.37
2023-01-30T04:01:24.824Z,-3.49
2023-01-30T04:01:57.977Z,-3.53
2023-01-30T04:02:30.557Z,-3.55
2023-01-30T04:03:03.390Z,-3.51
2023-01-30T04:03:36.936Z,-3.51
2023-01-30T04:04:09.872Z,-3.41
2023-01-30T04:04:42.270Z,-3.58
2023-01-30T04:05:14.556Z,-3.64
2023-01-30T04:05:48.963Z,-3.58
2023-01-30T04:06:21.230Z,-3.52
2023-01-30T04:06:54.137Z,-3.44
2023-01-30T04:07:28.381Z,-3.40
2023-01-30T04:08:00.760Z,-3.32
2023-01-30T04:08:34.067Z,-3.31
2023-01-30T04:09:06.129Z,-3.46
2023-01-30T04:09:38.627Z,-3.46
2023-01-30T04:10:11.141Z,-3.32
2023-01-30T04:10:44.268Z,-3.14
2023-01-30T04:11:16.226Z,-3.03
2023-01-30T04:11:49.293Z,-2.93
2023-01-30T04:12:21.601Z,-2.88
2023-01-30T04:12:54.741Z,-3.08
2023-01-30T04:13:26.976Z,-3.10
2023-01-30T04:13:58.918Z,-3.29
2023-01-30T04:14:34.078Z,-3.23
2023-01-30T04:15:09.661Z,-3.09
2023-01-30T04:15:44.268Z,-3.24
2023-01-30T04:16:23.594Z,-3.50
2023-01-30T04:16:59.177Z,-3.39
2023-01-30T04:17:33.047Z,-3.23
2023-01-30T04:18:05.816Z,-3.23
2023-01-30T04:18:39.435Z,-3.38
2023-01-30T04:19:11.961Z,-3.36
2023-01-30T04:19:44.719Z,-3.34
2023-01-30T04:20:17.858Z,-3.36
2023-01-30T04:20:50.575Z,-3.35
2023-01-30T04:21:23.354Z,-3.38
2023-01-30T04:21:55.677Z,-3.37
2023-01-30T04:22:27.956Z,-3.33
2023-01-30T04:22:59.953Z,-3.33
2023-01-30T04:23:32.133Z,-3.38
2023-01-30T04:24:04.246Z,-3.30
2023-01-30T04:24:36.323Z,-3.26
2023-01-30T04:25:08.973Z,-3.36
2023-01-30T04:25:41.683Z,-3.26
2023-01-30T04:26:14.265Z,-3.19
2023-01-30T04:26:46.663Z,-3.24
2023-01-30T04:27:18.958Z,-3.29
2023-01-30T04:27:52.201Z,-3.49
2023-01-30T04:28:24.410Z,-3.59
2023-01-30T04:28:57.464Z,-3.52
2023-01-30T04:29:31.089Z,-3.35
2023-01-30T04:30:04.647Z,-3.39
2023-01-30T04:30:36.634Z,-3.27
2023-01-30T04:31:12.045Z,-3.13
2023-01-30T04:31:44.593Z,-3.17
2023-01-30T04:32:17.173Z,-3.19
2023-01-30T04:32:49.726Z,-3.33
2023-01-30T04:33:22.180Z,-3.44
2023-01-30T04:33:54.672Z,-3.37
2023-01-30T04:34:26.884Z,-3.33
2023-01-30T04:34:59.192Z,-3.32
2023-01-30T04:35:31.313Z,-3.52
2023-01-30T04:36:04.970Z,-3.55
2023-01-30T04:36:37.113Z,-3.60
2023-01-30T04:37:09.412Z,-3.56
2023-01-30T04:37:42.907Z,-3.51
2023-01-30T04:38:15.330Z,-3.62
2023-01-30T04:38:47.882Z,-3.63
2023-01-30T04:39:22.203Z,-3.56
2023-01-30T04:39:54.275Z,-3.58
2023-01-30T04:40:26.716Z,-3.70
2023-01-30T04:41:01.044Z,-3.72
2023-01-30T04:41:33.304Z,-3.64
2023-01-30T04:42:05.649Z,-3.59
2023-01-30T04:42:40.110Z,-3.57
2023-01-30T04:43:15.040Z,-3.49
2023-01-30T04:43:50.403Z,-3.50
2023-01-30T04:44:23.443Z,-3.41
2023-01-30T04:44:55.549Z,-3.30
2023-01-30T04:45:29.396Z,-3.41
2023-01-30T04:46:02.235Z,-3.55
2023-01-30T04:46:34.733Z,-3.48
2023-01-30T04:47:06.601Z,-3.57
2023-01-30T04:47:38.599Z,-3.61
2023-01-30T04:48:10.730Z,-3.64
2023-01-30T04:48:43.121Z,-3.62
2023-01-30T04:49:15.521Z,-3.65
2023-01-30T04:49:48.802Z,-3.59
2023-01-30T04:50:21.077Z,-3.61
2023-01-30T04:50:56.287Z,-3.73
2023-01-30T04:51:29.039Z,-3.82
2023-01-30T04:52:02.303Z,-3.93
2023-01-30T04:52:34.514Z,-3.85
2023-01-30T04:53:06.811Z,-3.75
2023-01-30T04:53:38.957Z,-3.61
2023-01-30T04:54:13.485Z,-3.45
2023-01-30T04:54:46.503Z,-3.43
2023-01-30T04:55:19.070Z,-3.61
2023-01-30T04:55:52.134Z,-3.64
2023-01-30T04:56:24.067Z,-3.64
2023-01-30T04:56:57.921Z,-3.85
2023-01-30T04:57:29.962Z,-3.88
2023-01-30T04:58:02.096Z,-3.72
2023-01-30T04:58:34.068Z,-3.83
2023-01-30T04:59:06.445Z,-3.73
2023-01-30T04:59:38.910Z,-3.62
2023-01-30T05:00:14.637Z,-3.64
2023-01-30T05:00:48.581Z,-3.52
2023-01-30T05:01:30.618Z,-3.71
2023-01-30T05:02:03.537Z,-3.77
2023-01-30T05:02:35.603Z,-3.79
2023-01-30T05:03:07.812Z,-3.81
2023-01-30T05:03:39.697Z,-3.82
2023-01-30T05:04:11.873Z,-3.70
2023-01-30T05:04:43.956Z,-3.72
2023-01-30T05:05:16.572Z,-3.80
2023-01-30T05:05:49.157Z,-3.84
2023-01-30T05:06:23.149Z,-3.90
2023-01-30T05:06:55.056Z,-3.83
2023-01-30T05:07:27.579Z,-3.83
2023-01-30T05:07:59.534Z,-3.78
2023-01-30T05:08:31.412Z,-3.75
2023-01-30T05:09:03.906Z,-3.77
2023-01-30T05:09:36.643Z,-3.84
2023-01-30T05:10:09.400Z,-3.64
2023-01-30T05:10:42.123Z,-3.74
2023-01-30T05:11:13.963Z,-3.89
2023-01-30T05:11:45.902Z,-3.84
2023-01-30T05:12:17.779Z,-3.64
2023-01-30T05:12:49.686Z,-3.50
2023-01-30T05:13:21.636Z,-3.48
2023-01-30T05:13:53.969Z,-3.56
2023-01-30T05:14:25.875Z,-3.68
2023-01-30T05:14:57.783Z,-3.67
2023-01-30T05:15:29.711Z,-3.66
2023-01-30T05:16:01.962Z,-3.61
2023-01-30T05:16:33.867Z,-3.64
2023-01-30T05:17:05.785Z,-3.70
2023-01-30T05:17:38.295Z,-3.57
2023-01-30T05:18:10.178Z,-3.61
2023-01-30T05:18:43.240Z,-3.61
2023-01-30T05:19:15.132Z,-3.50
2023-01-30T05:19:47.050Z,-3.57
2023-01-30T05:20:19.058Z,-3.60
2023-01-30T05:20:51.007Z,-3.66
2023-01-30T05:21:26.261Z,-3.74
2023-01-30T05:21:58.169Z,-3.77
2023-01-30T05:22:30.065Z,-3.64
2023-01-30T05:23:02.014Z,-3.51
2023-01-30T05:23:34.289Z,-3.58
2023-01-30T05:24:06.615Z,-3.63
2023-01-30T05:24:38.616Z,-3.59
2023-01-30T05:25:10.607Z,-3.50
2023-01-30T05:25:42.614Z,-3.35
2023-01-30T05:26:15.538Z,-3.41
2023-01-30T05:26:47.756Z,-3.46
2023-01-30T05:27:19.689Z,-3.41
2023-01-30T05:27:51.587Z,-3.57
2023-01-30T05:28:23.646Z,-3.72
2023-01-30T05:28:57.550Z,-3.71
2023-01-30T05:29:29.965Z,-3.64
2023-01-30T05:30:02.054Z,-3.58
2023-01-30T05:30:34.224Z,-3.50
2023-01-30T05:31:08.847Z,-3.43
2023-01-30T05:31:40.800Z,-3.65
2023-01-30T05:32:15.212Z,-3.74
2023-01-30T05:32:47.232Z,-3.40
2023-01-30T05:33:19.302Z,-3.36
2023-01-30T05:33:52.618Z,-3.38
2023-01-30T05:34:24.974Z,-3.47
2023-01-30T05:34:56.877Z,-3.62
2023-01-30T05:35:29.586Z,-3.76
2023-01-30T05:36:01.963Z,-3.61
2023-01-30T05:36:33.867Z,-3.62
2023-01-30T05:37:06.026Z,-3.75
2023-01-30T05:37:38.236Z,-3.65
2023-01-30T05:38:10.194Z,-3.31
2023-01-30T05:38:45.999Z,-3.34
2023-01-30T05:39:17.955Z,-3.56
2023-01-30T05:39:50.090Z,-3.78
2023-01-30T05:40:22.188Z,-3.76
2023-01-30T05:41:07.997Z,-3.62
2023-01-30T05:41:39.975Z,-3.46
2023-01-30T05:42:11.871Z,-3.65
2023-01-30T05:42:44.049Z,-3.66
2023-01-30T05:43:15.938Z,-3.69
2023-01-30T05:43:51.417Z,-3.57
2023-01-30T05:44:23.760Z,-3.47
2023-01-30T05:44:55.640Z,-2.69
2023-01-30T05:45:27.680Z,-2.16
2023-01-30T05:46:01.421Z,-2.65
2023-01-30T05:46:33.470Z,-2.93
2023-01-30T05:47:05.497Z,-3.12
2023-01-30T05:47:37.452Z,-3.05
2023-01-30T05:48:09.641Z,-2.93
2023-01-30T05:48:41.576Z,-2.95
2023-01-30T05:49:13.535Z,-2.88
2023-01-30T05:49:45.444Z,-2.89
2023-01-30T05:50:17.712Z,-2.98
2023-01-30T05:50:53.984Z,-3.30
2023-01-30T05:51:27.539Z,-3.29
2023-01-30T05:51:59.521Z,-3.18
2023-01-30T05:52:31.500Z,-3.19
2023-01-30T05:53:03.363Z,-3.04
2023-01-30T05:53:35.737Z,-2.97
2023-01-30T05:54:07.700Z,-3.17
2023-01-30T05:54:39.683Z,-3.40
2023-01-30T05:55:11.593Z,-3.52
2023-01-30T05:55:43.874Z,-3.55
2023-01-30T05:56:16.359Z,-3.45
2023-01-30T05:56:51.465Z,-3.36
2023-01-30T05:57:23.483Z,-3.29
2023-01-30T05:57:55.480Z,-3.31
2023-01-30T05:58:28.219Z,-3.48
2023-01-30T05:59:01.687Z,-3.44
2023-01-30T05:59:33.800Z,-3.30
2023-01-30T06:00:06.817Z,-3.31
2023-01-30T06:00:44.727Z,-3.29
2023-01-30T06:01:17.101Z,-3.41
2023-01-30T06:01:49.253Z,-3.64
2023-01-30T06:02:21.217Z,-3.56
2023-01-30T06:02:53.227Z,-3.48
2023-01-30T06:03:25.429Z,-3.42
2023-01-30T06:03:59.007Z,-3.35
2023-01-30T06:04:30.969Z,-3.34
2023-01-30T06:05:03.059Z,-3.48
2023-01-30T06:05:38.272Z,-3.47
2023-01-30T06:06:11.586Z,-3.53
2023-01-30T06:06:43.928Z,-3.44
2023-01-30T06:07:15.866Z,-3.36
2023-01-30T06:07:47.726Z,-3.30
2023-01-30T06:08:19.670Z,-3.22
2023-01-30T06:08:57.780Z,-3.26
2023-01-30T06:09:29.701Z,-3.53
2023-01-30T06:10:01.908Z,-3.68
2023-01-30T06:10:35.044Z,-3.64
2023-01-30T06:11:13.666Z,-3.64
2023-01-30T06:11:45.940Z,-3.55
2023-01-30T06:12:17.838Z,-3.70
2023-01-30T06:12:49.726Z,-3.89
2023-01-30T06:13:21.693Z,-3.78
2023-01-30T06:13:53.759Z,-3.61
2023-01-30T06:14:25.668Z,-3.54
2023-01-30T06:14:57.767Z,-3.58
2023-01-30T06:15:29.685Z,-3.60
2023-01-30T06:16:01.874Z,-3.55
2023-01-30T06:16:33.906Z,-3.45
2023-01-30T06:17:06.225Z,-3.44
2023-01-30T06:17:42.127Z,-3.49
2023-01-30T06:18:14.103Z,-3.46
2023-01-30T06:18:49.446Z,-3.56
2023-01-30T06:19:21.446Z,-3.44
2023-01-30T06:19:53.329Z,-3.39
2023-01-30T06:20:25.213Z,-3.52
2023-01-30T06:20:57.230Z,-3.46
2023-01-30T06:21:29.128Z,-3.51
2023-01-30T06:22:01.002Z,-3.48
2023-01-30T06:22:33.625Z,-3.77
2023-01-30T06:23:05.519Z,-3.66
2023-01-30T06:23:38.875Z,-3.49
2023-01-30T06:24:11.062Z,-3.41
2023-01-30T06:24:43.096Z,-3.65
2023-01-30T06:25:15.480Z,-3.80
2023-01-30T06:25:49.236Z,-3.67
2023-01-30T06:26:21.311Z,-3.60
2023-01-30T06:26:53.409Z,-3.72
2023-01-30T06:27:25.358Z,-3.78
2023-01-30T06:27:57.587Z,-3.70
2023-01-30T06:28:29.666Z,-3.57
2023-01-30T06:29:01.582Z,-3.47
2023-01-30T06:29:33.512Z,-3.41
2023-01-30T06:30:05.726Z,-3.34
2023-01-30T06:30:37.645Z,-3.59
2023-01-30T06:31:10.040Z,-3.53
2023-01-30T06:31:42.041Z,-3.51
2023-01-30T06:32:15.029Z,-3.45
2023-01-30T06:32:50.895Z,-3.31
2023-01-30T06:33:23.260Z,-3.08
2023-01-30T06:33:55.122Z,-3.30
2023-01-30T06:34:27.000Z,-3.26
2023-01-30T06:34:58.945Z,-3.12
2023-01-30T06:35:30.857Z,-3.11
2023-01-30T06:36:02.887Z,-3.08
2023-01-30T06:36:34.947Z,-3.03
2023-01-30T06:37:06.835Z,-3.05
2023-01-30T06:37:38.756Z,-3.21
2023-01-30T06:38:13.404Z,-3.15
2023-01-30T06:38:45.773Z,-3.02
2023-01-30T06:39:17.735Z,-2.94
2023-01-30T06:39:49.629Z,-2.94
2023-01-30T06:40:21.725Z,-2.90
2023-01-30T06:40:53.620Z,-3.03
2023-01-30T06:41:25.477Z,-3.02
2023-01-30T06:41:57.358Z,-2.86
2023-01-30T06:42:29.240Z,-2.83
2023-01-30T06:43:01.318Z,-3.00
2023-01-30T06:43:33.300Z,-3.02
2023-01-30T06:44:05.692Z,-2.99
2023-01-30T06:44:37.637Z,-3.07
2023-01-30T06:45:10.015Z,-3.01
2023-01-30T06:45:42.273Z,-3.09
2023-01-30T06:46:14.396Z,-3.20
2023-01-30T06:46:46.281Z,-3.24
2023-01-30T06:47:18.143Z,-3.16
2023-01-30T06:47:53.309Z,-2.95
2023-01-30T06:48:25.183Z,-2.87
2023-01-30T06:48:57.276Z,-2.73
2023-01-30T06:49:29.464Z,-2.71
2023-01-30T06:50:01.477Z,-2.74
2023-01-30T06:50:33.929Z,-2.99
2023-01-30T06:51:06.036Z,-3.13
2023-01-30T06:51:37.924Z,-3.11
2023-01-30T06:52:10.098Z,-3.26
2023-01-30T06:52:45.984Z,-3.09
2023-01-30T06:53:18.165Z,-3.22
2023-01-30T06:53:52.395Z,-3.15
2023-01-30T06:54:25.045Z,-2.90
2023-01-30T06:54:57.511Z,-3.01
2023-01-30T06:55:29.547Z,-2.97
2023-01-30T06:56:02.111Z,-3.06
2023-01-30T06:56:33.991Z,-3.16
2023-01-30T06:57:06.000Z,-2.97
2023-01-30T06:57:37.943Z,-2.79
2023-01-30T06:58:14.627Z,-2.88
2023-01-30T06:58:46.560Z,-2.66
2023-01-30T06:59:18.465Z,-2.39
2023-01-30T06:59:50.330Z,-2.01
2023-01-30T07:00:23.235Z,-1.60
2023-01-30T07:00:55.358Z,-1.28
2023-01-30T07:01:28.925Z,-1.02
2023-01-30T07:02:01.184Z,-0.77
2023-01-30T07:02:35.356Z,-0.40
2023-01-30T07:03:17.168Z,-0.24
2023-01-30T07:03:49.052Z,-0.01
2023-01-30T07:04:23.685Z,0.28
2023-01-30T07:04:55.601Z,0.73
2023-01-30T07:05:29.005Z,0.95
2023-01-30T07:06:00.929Z,0.96
2023-01-30T07:06:33.283Z,1.35
2023-01-30T07:07:07.098Z,1.67
2023-01-30T07:07:39.601Z,1.72
2023-01-30T07:08:12.875Z,2.07
2023-01-30T07:08:44.779Z,2.26
2023-01-30T07:09:16.784Z,2.64
2023-01-30T07:10:02.170Z,3.03
2023-01-30T07:10:39.139Z,3.40
2023-01-30T07:11:11.098Z,3.64
2023-01-30T07:11:43.049Z,3.56
2023-01-30T07:12:14.943Z,3.82
2023-01-30T07:12:47.802Z,4.02
2023-01-30T07:13:19.798Z,4.02
2023-01-30T07:13:51.995Z,4.04
2023-01-30T07:14:23.899Z,4.06
2023-01-30T07:14:55.788Z,3.91
2023-01-30T07:15:28.088Z,3.88
2023-01-30T07:16:00.263Z,3.79
2023-01-30T07:16:32.301Z,3.64
2023-01-30T07:17:04.441Z,3.65
2023-01-30T07:17:36.445Z,3.60
2023-01-30T07:18:08.766Z,3.57
2023-01-30T07:18:40.954Z,3.42
2023-01-30T07:19:12.871Z,3.07
2023-01-30T07:19:45.518Z,3.01
2023-01-30T07:20:17.653Z,2.64
2023-01-30T07:20:50.469Z,2.24
2023-01-30T07:21:22.923Z,2.23
2023-01-30T07:21:54.826Z,2.29
2023-01-30T07:22:26.792Z,2.58
2023-01-30T07:22:58.817Z,2.56
2023-01-30T07:23:30.732Z,2.43
2023-01-30T07:24:02.593Z,2.46
2023-01-30T07:24:34.472Z,2.48
2023-01-30T07:25:06.937Z,2.37
2023-01-30T07:25:38.831Z,2.19
2023-01-30T07:26:10.748Z,2.02
2023-01-30T07:26:42.990Z,2.09
2023-01-30T07:27:15.030Z,2.37
2023-01-30T07:27:58.854Z,2.28
2023-01-30T07:28:30.747Z,2.21